Gaz Venture — 3FLQ4 — position and weather

sailwx.info

Track history (hours):
 
Tides and Currents Weather Stations Pressure Air Temp Water Temp Dewpoint Dewpoint Depression Visibility Wind Speed Wind Dir Waves Ship Positions

Gaz Venture

Last reported at 2014-Oct-22 09:28 UTC. Time now 2014-Oct-30 19:08 UTC.
Position N 36°29' E 026°47'.
Warning: this ship's position is 8 days out of date.

Length 120 m; draft 5.7 m.

Type: Ship. MMSI: 356141000.

Date/timePositionNaut miles runAvg speedWind from/ knotsBaromVisibWave heightAir tempDewpointWater temp
2014-Oct-22 09:28N 36°29' E 026°47'1314.4
2014-Oct-22 08:33N 36°39' E 026°35'2114.4
2014-Oct-22 07:05N 36°53' E 026°16'1214.1
2014-Oct-22 06:16N 37°03' E 026°09'1014.1
2014-Oct-22 05:33N 37°12' E 026°04'1413.8
2014-Oct-22 04:33N 37°24' E 025°55'1413.5
2014-Oct-22 03:33N 37°37' E 025°50'1413.9
2014-Oct-22 02:33N 37°51' E 025°48'2014.2
2014-Oct-22 01:09N 38°11' E 025°46'913.5
2014-Oct-22 00:31N 38°19' E 025°46'1713.2
2014-Oct-21 23:15N 38°36' E 025°46'  
2014-Oct-18 21:32N 37°52' E 024°32'1413.7
2014-Oct-18 20:31N 37°44' E 024°17'1313.7
2014-Oct-18 19:33N 37°33' E 024°07'2713.4
2014-Oct-18 17:32N 37°10' E 023°51'1413.9
2014-Oct-18 16:33N 36°59' E 023°41'2914.3
2014-Oct-18 14:33N 36°33' E 023°24'1414.2
2014-Oct-18 13:33N 36°20' E 023°17'36314.3
2014-Oct-17 12:07N 35°39' E 015°51'814.7
2014-Oct-17 11:33N 35°39' E 015°41'9 8.8
2014-Oct-17 10:31N 35°37' E 015°30'1 0.5
2014-Oct-17 09:28N 35°36' E 015°29'0 0.4
2014-Oct-17 08:31N 35°36' E 015°29'0 0.4
2014-Oct-17 07:31N 35°36' E 015°29'0 0.4
2014-Oct-17 06:31N 35°36' E 015°29'0 0.2
2014-Oct-17 05:31N 35°35' E 015°29'0 0.3
2014-Oct-17 04:31N 35°35' E 015°28'0 0.3
2014-Oct-17 03:31N 35°35' E 015°28'0 0.2
2014-Oct-17 02:31N 35°35' E 015°28'0 0.2
2014-Oct-17 01:31N 35°35' E 015°27'0 0.2
2014-Oct-17 00:31N 35°35' E 015°27'0 0.3
2014-Oct-16 23:31N 35°35' E 015°27'0 0.4
2014-Oct-16 22:31N 35°35' E 015°26'0 0.4
2014-Oct-16 21:31N 35°35' E 015°26'0 0.3
2014-Oct-16 20:31N 35°35' E 015°26'0 0.2
2014-Oct-16 19:31N 35°35' E 015°25'0 0.3
2014-Oct-16 18:31N 35°35' E 015°25'0 0.4
2014-Oct-16 17:31N 35°34' E 015°25'0 0.5
2014-Oct-16 16:31N 35°34' E 015°24'0 0.2
2014-Oct-16 15:31N 35°34' E 015°24'7 5.2
2014-Oct-16 14:06N 35°41' E 015°19'814.9
2014-Oct-16 13:33N 35°45' E 015°11'1514.9
2014-Oct-16 12:33N 35°55' E 014°57'7 6.4
2014-Oct-16 11:31N 35°59' E 014°50'0 0.0
2014-Oct-16 10:04N 35°59' E 014°50'0 0.0
2014-Oct-16 07:19N 35°59' E 014°50'0 0.0
2014-Oct-16 06:31N 35°59' E 014°50'0 0.0
2014-Oct-16 05:31N 35°59' E 014°50'0 0.0
2014-Oct-16 04:25N 35°59' E 014°50'0 0.1
2014-Oct-16 03:28N 35°59' E 014°50'0 0.0
2014-Oct-15 23:13N 35°59' E 014°50'0 0.0
2014-Oct-15 22:25N 35°59' E 014°50'0 0.1
2014-Oct-15 20:31N 35°59' E 014°50'0 0.0
2014-Oct-15 18:16N 35°59' E 014°50'0 0.0
2014-Oct-15 16:10N 35°59' E 014°50'0 0.0
2014-Oct-15 13:28N 35°59' E 014°50'0 0.0
2014-Oct-15 11:22N 35°59' E 014°50'0 0.0
2014-Oct-15 10:28N 35°59' E 014°50'0 0.0
2014-Oct-15 09:31N 35°59' E 014°50'0 0.0
2014-Oct-15 08:31N 35°59' E 014°50'0 0.0
2014-Oct-15 07:31N 35°59' E 014°50'0 0.0
2014-Oct-15 06:31N 35°59' E 014°50'0 0.0
2014-Oct-15 05:31N 35°59' E 014°50'0 0.0
2014-Oct-15 04:28N 35°59' E 014°50'0 0.0
2014-Oct-15 03:31N 35°59' E 014°50'0 0.0
2014-Oct-15 02:28N 35°59' E 014°50'0 0.0
2014-Oct-15 01:31N 35°59' E 014°50'0 0.0
2014-Oct-15 00:31N 35°59' E 014°50'0 0.0
2014-Oct-14 23:31N 35°59' E 014°50'0 0.0
2014-Oct-14 22:31N 35°59' E 014°50'0 0.0
2014-Oct-14 21:31N 35°59' E 014°50'0 0.0
2014-Oct-14 20:31N 35°59' E 014°50'0 0.0
2014-Oct-14 19:31N 35°59' E 014°50'0 0.0
2014-Oct-14 18:31N 35°59' E 014°50'0 0.0
2014-Oct-14 17:31N 35°59' E 014°50'0 0.0
2014-Oct-14 16:31N 35°59' E 014°50'0 0.0
2014-Oct-14 15:31N 35°59' E 014°50'0 0.1
2014-Oct-14 14:34N 35°59' E 014°50'1212.0
2014-Oct-14 13:33N 35°57' E 014°35'0 0.2
2014-Oct-14 12:33N 35°57' E 014°35'0 0.4
2014-Oct-14 11:33N 35°57' E 014°35'5 5.2
2014-Oct-14 10:33N 35°56' E 014°42'4 4.1
2014-Oct-14 09:32N 35°55' E 014°47'0 0.0
2014-Oct-14 08:32N 35°55' E 014°47'0 0.0
2014-Oct-14 07:32N 35°55' E 014°47'5 0.2
2014-Oct-13 06:07N 35°58' E 014°50'0 0.0
2014-Oct-13 05:31N 35°58' E 014°50'0 0.0
2014-Oct-13 04:34N 35°58' E 014°50'0 0.0
2014-Oct-13 03:33N 35°58' E 014°50'0 0.0
2014-Oct-13 02:34N 35°58' E 014°50'2 2.0
2014-Oct-13 01:34N 35°60' E 014°48'1515.5
2014-Oct-13 00:34N 36°09' E 014°33'1515.3
2014-Oct-12 23:34N 36°16' E 014°16'1515.1
2014-Oct-12 22:34N 36°23' E 013°59'1514.9
2014-Oct-12 21:34N 36°29' E 013°42'1514.6
2014-Oct-12 20:34N 36°35' E 013°26'1514.7
2014-Oct-12 19:34N 36°41' E 013°09'1514.9
2014-Oct-12 18:34N 36°46' E 012°52'1514.9
2014-Oct-12 17:34N 36°52' E 012°35'1515.2
2014-Oct-12 16:34N 36°58' E 012°17'1515.2
2014-Oct-12 15:33N 37°04' E 011°60'1615.7
2014-Oct-12 14:33N 37°10' E 011°42'3114.8
2014-Oct-12 12:29N 37°23' E 011°07'3315.3
2014-Oct-12 10:21N 37°02' E 010°36'1215.2
2014-Oct-12 09:34N 36°52' E 010°27'  
Track history (hours):
 
Tides and Currents Weather Stations Pressure Air Temp Water Temp Dewpoint Dewpoint Depression Visibility Wind Speed Wind Dir Waves Ship Positions

Gaz Venture

Last reported at 2014-Oct-22 09:28 UTC. Time now 2014-Oct-30 19:08 UTC.
Position N 36°29' E 026°47'.
Warning: this ship's position is 8 days out of date.

Length 120 m; draft 5.7 m.

Type: Ship. MMSI: 356141000.

Date/timePositionNaut miles runAvg speedWind from/ knotsBaromVisibWave heightAir tempDewpointWater temp
2014-Oct-22 09:28N 36°29' E 026°47'1314.4
2014-Oct-22 08:33N 36°39' E 026°35'2114.4
2014-Oct-22 07:05N 36°53' E 026°16'1214.1
2014-Oct-22 06:16N 37°03' E 026°09'1014.1
2014-Oct-22 05:33N 37°12' E 026°04'1413.8
2014-Oct-22 04:33N 37°24' E 025°55'1413.5
2014-Oct-22 03:33N 37°37' E 025°50'1413.9
2014-Oct-22 02:33N 37°51' E 025°48'2014.2
2014-Oct-22 01:09N 38°11' E 025°46'913.5
2014-Oct-22 00:31N 38°19' E 025°46'1713.2
2014-Oct-21 23:15N 38°36' E 025°46'  
2014-Oct-18 21:32N 37°52' E 024°32'1413.7
2014-Oct-18 20:31N 37°44' E 024°17'1313.7
2014-Oct-18 19:33N 37°33' E 024°07'2713.4
2014-Oct-18 17:32N 37°10' E 023°51'1413.9
2014-Oct-18 16:33N 36°59' E 023°41'2914.3
2014-Oct-18 14:33N 36°33' E 023°24'1414.2
2014-Oct-18 13:33N 36°20' E 023°17'36314.3
2014-Oct-17 12:07N 35°39' E 015°51'814.7
2014-Oct-17 11:33N 35°39' E 015°41'9 8.8
2014-Oct-17 10:31N 35°37' E 015°30'1 0.5
2014-Oct-17 09:28N 35°36' E 015°29'0 0.4
2014-Oct-17 08:31N 35°36' E 015°29'0 0.4
2014-Oct-17 07:31N 35°36' E 015°29'0 0.4
2014-Oct-17 06:31N 35°36' E 015°29'0 0.2
2014-Oct-17 05:31N 35°35' E 015°29'0 0.3
2014-Oct-17 04:31N 35°35' E 015°28'0 0.3
2014-Oct-17 03:31N 35°35' E 015°28'0 0.2
2014-Oct-17 02:31N 35°35' E 015°28'0 0.2
2014-Oct-17 01:31N 35°35' E 015°27'0 0.2
2014-Oct-17 00:31N 35°35' E 015°27'0 0.3
2014-Oct-16 23:31N 35°35' E 015°27'0 0.4
2014-Oct-16 22:31N 35°35' E 015°26'0 0.4
2014-Oct-16 21:31N 35°35' E 015°26'0 0.3
2014-Oct-16 20:31N 35°35' E 015°26'0 0.2
2014-Oct-16 19:31N 35°35' E 015°25'0 0.3
2014-Oct-16 18:31N 35°35' E 015°25'0 0.4
2014-Oct-16 17:31N 35°34' E 015°25'0 0.5
2014-Oct-16 16:31N 35°34' E 015°24'0 0.2
2014-Oct-16 15:31N 35°34' E 015°24'7 5.2
2014-Oct-16 14:06N 35°41' E 015°19'814.9
2014-Oct-16 13:33N 35°45' E 015°11'1514.9
2014-Oct-16 12:33N 35°55' E 014°57'7 6.4
2014-Oct-16 11:31N 35°59' E 014°50'0 0.0
2014-Oct-16 10:04N 35°59' E 014°50'0 0.0
2014-Oct-16 07:19N 35°59' E 014°50'0 0.0
2014-Oct-16 06:31N 35°59' E 014°50'0 0.0
2014-Oct-16 05:31N 35°59' E 014°50'0 0.0
2014-Oct-16 04:25N 35°59' E 014°50'0 0.1
2014-Oct-16 03:28N 35°59' E 014°50'0 0.0
2014-Oct-15 23:13N 35°59' E 014°50'0 0.0
2014-Oct-15 22:25N 35°59' E 014°50'0 0.1
2014-Oct-15 20:31N 35°59' E 014°50'0 0.0
2014-Oct-15 18:16N 35°59' E 014°50'0 0.0
2014-Oct-15 16:10N 35°59' E 014°50'0 0.0
2014-Oct-15 13:28N 35°59' E 014°50'0 0.0
2014-Oct-15 11:22N 35°59' E 014°50'0 0.0
2014-Oct-15 10:28N 35°59' E 014°50'0 0.0
2014-Oct-15 09:31N 35°59' E 014°50'0 0.0
2014-Oct-15 08:31N 35°59' E 014°50'0 0.0
2014-Oct-15 07:31N 35°59' E 014°50'0 0.0
2014-Oct-15 06:31N 35°59' E 014°50'0 0.0
2014-Oct-15 05:31N 35°59' E 014°50'0 0.0
2014-Oct-15 04:28N 35°59' E 014°50'0 0.0
2014-Oct-15 03:31N 35°59' E 014°50'0 0.0
2014-Oct-15 02:28N 35°59' E 014°50'0 0.0
2014-Oct-15 01:31N 35°59' E 014°50'0 0.0
2014-Oct-15 00:31N 35°59' E 014°50'0 0.0
2014-Oct-14 23:31N 35°59' E 014°50'0 0.0
2014-Oct-14 22:31N 35°59' E 014°50'0 0.0
2014-Oct-14 21:31N 35°59' E 014°50'0 0.0
2014-Oct-14 20:31N 35°59' E 014°50'0 0.0
2014-Oct-14 19:31N 35°59' E 014°50'0 0.0
2014-Oct-14 18:31N 35°59' E 014°50'0 0.0
2014-Oct-14 17:31N 35°59' E 014°50'0 0.0
2014-Oct-14 16:31N 35°59' E 014°50'0 0.0
2014-Oct-14 15:31N 35°59' E 014°50'0 0.1
2014-Oct-14 14:34N 35°59' E 014°50'1212.0
2014-Oct-14 13:33N 35°57' E 014°35'0 0.2
2014-Oct-14 12:33N 35°57' E 014°35'0 0.4
2014-Oct-14 11:33N 35°57' E 014°35'5 5.2
2014-Oct-14 10:33N 35°56' E 014°42'4 4.1
2014-Oct-14 09:32N 35°55' E 014°47'0 0.0
2014-Oct-14 08:32N 35°55' E 014°47'0 0.0
2014-Oct-14 07:32N 35°55' E 014°47'5 0.2
2014-Oct-13 06:07N 35°58' E 014°50'0 0.0
2014-Oct-13 05:31N 35°58' E 014°50'0 0.0
2014-Oct-13 04:34N 35°58' E 014°50'0 0.0
2014-Oct-13 03:33N 35°58' E 014°50'0 0.0
2014-Oct-13 02:34N 35°58' E 014°50'2 2.0
2014-Oct-13 01:34N 35°60' E 014°48'1515.5
2014-Oct-13 00:34N 36°09' E 014°33'1515.3
2014-Oct-12 23:34N 36°16' E 014°16'1515.1
2014-Oct-12 22:34N 36°23' E 013°59'1514.9
2014-Oct-12 21:34N 36°29' E 013°42'1514.6
2014-Oct-12 20:34N 36°35' E 013°26'1514.7
2014-Oct-12 19:34N 36°41' E 013°09'1514.9
2014-Oct-12 18:34N 36°46' E 012°52'1514.9
2014-Oct-12 17:34N 36°52' E 012°35'1515.2
2014-Oct-12 16:34N 36°58' E 012°17'1515.2
2014-Oct-12 15:33N 37°04' E 011°60'1615.7
2014-Oct-12 14:33N 37°10' E 011°42'3114.8
2014-Oct-12 12:29N 37°23' E 011°07'3315.3
2014-Oct-12 10:21N 37°02' E 010°36'1215.2
2014-Oct-12 09:34N 36°52' E 010°27'  

Dump ship's entire track history